createdAt,value
2022-12-10T00:01:09.432Z,-1.93
2022-12-10T00:03:36.816Z,-1.90
2022-12-10T00:06:05.358Z,-1.91
2022-12-10T00:08:39.602Z,-1.90
2022-12-10T00:11:08.409Z,-1.94
2022-12-10T00:13:36.509Z,-1.87
2022-12-10T00:16:05.087Z,-1.91
2022-12-10T00:18:32.330Z,-1.92
2022-12-10T00:20:58.902Z,-1.95
2022-12-10T00:23:25.540Z,-1.97
2022-12-10T00:25:52.063Z,-2.04
2022-12-10T00:28:18.616Z,-2.02
2022-12-10T00:30:45.176Z,-1.96
2022-12-10T00:33:11.733Z,-2.00
2022-12-10T00:35:38.780Z,-1.99
2022-12-10T00:38:05.361Z,-1.92
2022-12-10T00:40:31.931Z,-1.90
2022-12-10T00:42:58.480Z,-1.88
2022-12-10T00:45:25.065Z,-1.94
2022-12-10T00:47:51.648Z,-1.90
2022-12-10T00:50:18.357Z,-1.90
2022-12-10T00:52:44.950Z,-1.87
2022-12-10T00:55:11.520Z,-1.95
2022-12-10T00:57:38.102Z,-1.86
2022-12-10T01:00:05.722Z,-1.90
2022-12-10T01:02:32.514Z,-1.88
2022-12-10T01:04:59.246Z,-1.92
2022-12-10T01:07:25.810Z,-1.93
2022-12-10T01:09:52.421Z,-1.90
2022-12-10T01:12:18.975Z,-1.89
2022-12-10T01:14:45.595Z,-1.96
2022-12-10T01:17:12.183Z,-1.96
2022-12-10T01:19:39.369Z,-1.92
2022-12-10T01:22:05.944Z,-1.92
2022-12-10T01:24:32.909Z,-1.96
2022-12-10T01:27:00.331Z,-2.00
2022-12-10T01:29:28.951Z,-1.97
2022-12-10T01:31:57.468Z,-2.03
2022-12-10T01:34:25.498Z,-2.08
2022-12-10T01:36:54.230Z,-2.10
2022-12-10T01:39:22.892Z,-2.09
2022-12-10T01:41:58.240Z,-2.05
2022-12-10T01:44:24.759Z,-2.09
2022-12-10T01:46:54.335Z,-2.12
2022-12-10T01:49:27.161Z,-2.14
2022-12-10T01:51:56.922Z,-2.10
2022-12-10T01:54:29.871Z,-2.15
2022-12-10T01:57:00.677Z,-2.13
2022-12-10T01:59:28.833Z,-2.16
2022-12-10T02:02:27.567Z,-2.13
2022-12-10T02:05:14.583Z,-2.10
2022-12-10T02:07:53.435Z,-2.11
2022-12-10T02:10:26.057Z,-1.89
2022-12-10T02:13:07.494Z,-1.98
2022-12-10T02:15:44.676Z,-2.05
2022-12-10T02:18:18.803Z,-2.11
2022-12-10T02:20:50.774Z,-2.12
2022-12-10T02:23:44.154Z,-2.11
2022-12-10T02:26:42.248Z,-2.11
2022-12-10T02:29:19.545Z,-2.09
2022-12-10T02:32:14.929Z,-2.04
2022-12-10T02:34:49.156Z,-2.05
2022-12-10T02:37:21.655Z,-1.89
2022-12-10T02:39:52.164Z,-1.93
2022-12-10T02:42:20.287Z,-1.88
2022-12-10T02:44:49.698Z,-1.95
2022-12-10T02:47:19.303Z,-1.98
2022-12-10T02:49:49.424Z,-1.87
2022-12-10T02:52:19.965Z,-1.95
2022-12-10T02:54:49.356Z,-1.95
2022-12-10T02:57:37.402Z,-1.91
2022-12-10T03:00:07.757Z,-1.95
2022-12-10T03:03:03.618Z,-2.03
2022-12-10T03:05:39.038Z,-2.09
2022-12-10T03:08:26.147Z,-2.09
2022-12-10T03:10:56.271Z,-2.07
2022-12-10T03:13:30.841Z,-2.02
2022-12-10T03:15:59.980Z,-1.94
2022-12-10T03:18:28.333Z,-1.96
2022-12-10T03:21:00.569Z,-2.05
2022-12-10T03:23:29.748Z,-2.09
2022-12-10T03:25:56.666Z,-2.05
2022-12-10T03:28:24.483Z,-2.10
2022-12-10T03:30:52.655Z,-2.14
2022-12-10T03:33:19.593Z,-2.17
2022-12-10T03:35:46.869Z,-2.20
2022-12-10T03:38:14.981Z,-2.15
2022-12-10T03:40:41.915Z,-2.12
2022-12-10T03:43:08.491Z,-2.09
2022-12-10T03:45:35.038Z,-2.04
2022-12-10T03:48:01.613Z,-1.99
2022-12-10T03:50:28.299Z,-2.02
2022-12-10T03:52:54.864Z,-2.01
2022-12-10T03:55:21.458Z,-2.08
2022-12-10T03:57:49.135Z,-2.06
2022-12-10T04:00:15.924Z,-2.07
2022-12-10T04:02:43.120Z,-2.09
2022-12-10T04:05:09.887Z,-2.08
2022-12-10T04:07:36.759Z,-2.04
2022-12-10T04:10:04.385Z,-1.99
2022-12-10T04:12:31.137Z,-1.98
2022-12-10T04:15:16.272Z,-1.97
2022-12-10T04:17:42.852Z,-1.99
2022-12-10T04:20:29.688Z,-2.00
2022-12-10T04:23:14.817Z,-1.92
2022-12-10T04:26:00.380Z,-1.97
2022-12-10T04:28:27.240Z,-2.06
2022-12-10T04:30:53.892Z,-2.00
2022-12-10T04:33:20.503Z,-2.09
2022-12-10T04:35:47.184Z,-2.12
2022-12-10T04:38:13.834Z,-2.08
2022-12-10T04:40:40.404Z,-2.07
2022-12-10T04:43:06.980Z,-2.10
2022-12-10T04:45:35.649Z,-2.04
2022-12-10T04:48:02.631Z,-2.15
2022-12-10T04:50:29.277Z,-2.18
2022-12-10T04:52:55.826Z,-2.16
2022-12-10T04:55:22.662Z,-2.14
2022-12-10T04:57:49.295Z,-2.19
2022-12-10T05:00:16.095Z,-2.22
2022-12-10T05:02:42.658Z,-2.23
2022-12-10T05:05:09.379Z,-2.15
2022-12-10T05:07:35.960Z,-2.12
2022-12-10T05:10:02.535Z,-2.02
2022-12-10T05:12:29.112Z,-1.94
2022-12-10T05:14:55.703Z,-1.97
2022-12-10T05:17:22.313Z,-2.09
2022-12-10T05:19:48.894Z,-1.99
2022-12-10T05:22:33.896Z,-1.97
2022-12-10T05:25:00.917Z,-1.96
2022-12-10T05:27:32.614Z,-1.96
2022-12-10T05:29:59.321Z,-1.92
2022-12-10T05:32:25.884Z,-2.01
2022-12-10T05:34:52.466Z,-2.04
2022-12-10T05:37:19.056Z,-1.90
2022-12-10T05:39:45.747Z,-1.81
2022-12-10T05:42:12.433Z,-1.75
2022-12-10T05:44:39.046Z,-1.76
2022-12-10T05:47:05.611Z,-1.87
2022-12-10T05:49:32.284Z,-1.83
2022-12-10T05:51:58.882Z,-2.05
2022-12-10T05:54:25.645Z,-2.07
2022-12-10T05:56:52.319Z,-2.14
2022-12-10T05:59:18.944Z,-2.04
2022-12-10T06:01:45.959Z,-2.02
2022-12-10T06:04:13.123Z,-2.04
2022-12-10T06:06:40.740Z,-2.13
2022-12-10T06:09:11.778Z,-2.09
2022-12-10T06:11:38.336Z,-2.07
2022-12-10T06:14:04.937Z,-2.15
2022-12-10T06:16:31.710Z,-2.18
2022-12-10T06:18:58.968Z,-2.17
2022-12-10T06:21:26.322Z,-2.07
2022-12-10T06:23:53.836Z,-2.02
2022-12-10T06:26:23.753Z,-2.06
2022-12-10T06:28:51.249Z,-2.11
2022-12-10T06:31:18.782Z,-2.11
2022-12-10T06:33:45.915Z,-2.06
2022-12-10T06:36:15.818Z,-1.94
2022-12-10T06:38:42.864Z,-1.95
2022-12-10T06:41:13.439Z,-2.05
2022-12-10T06:43:40.389Z,-2.10
2022-12-10T06:46:12.332Z,-2.12
2022-12-10T06:48:39.297Z,-2.10
2022-12-10T06:51:06.672Z,-2.09
2022-12-10T06:53:34.751Z,-2.04
2022-12-10T06:56:02.964Z,-2.00
2022-12-10T06:58:30.720Z,-2.10
2022-12-10T07:01:09.092Z,-2.13
2022-12-10T07:03:36.388Z,-2.13
2022-12-10T07:06:04.266Z,-2.12
2022-12-10T07:08:31.264Z,-2.21
2022-12-10T07:10:58.729Z,-2.21
2022-12-10T07:13:30.503Z,-2.23
2022-12-10T07:15:58.002Z,-2.26
2022-12-10T07:18:25.326Z,-2.25
2022-12-10T07:20:51.926Z,-2.23
2022-12-10T07:23:18.921Z,-2.17
2022-12-10T07:25:45.499Z,-2.05
2022-12-10T07:28:12.279Z,-1.84
2022-12-10T07:30:38.892Z,-1.89
2022-12-10T07:33:05.668Z,-1.91
2022-12-10T07:35:32.266Z,-1.83
2022-12-10T07:37:58.906Z,-1.88
2022-12-10T07:40:25.432Z,-1.66
2022-12-10T07:42:52.014Z,-1.50
2022-12-10T07:45:18.669Z,-1.38
2022-12-10T07:47:45.282Z,-1.34
2022-12-10T07:50:12.082Z,-1.26
2022-12-10T07:52:38.816Z,-1.22
2022-12-10T07:55:05.866Z,-1.21
2022-12-10T07:57:32.500Z,-1.30
2022-12-10T07:59:59.560Z,-1.25
2022-12-10T08:02:26.237Z,-1.19
2022-12-10T08:04:52.763Z,-1.28
2022-12-10T08:07:19.344Z,-1.26
2022-12-10T08:09:45.934Z,-1.18
2022-12-10T08:12:12.622Z,-1.15
2022-12-10T08:14:39.204Z,-1.10
2022-12-10T08:17:05.813Z,-1.01
2022-12-10T08:19:32.438Z,-1.11
2022-12-10T08:21:59.119Z,-0.92
2022-12-10T08:24:25.738Z,-0.96
2022-12-10T08:26:52.319Z,-0.98
2022-12-10T08:29:18.919Z,-0.77
2022-12-10T08:31:45.718Z,-0.64
2022-12-10T08:34:14.807Z,-0.67
2022-12-10T08:36:41.794Z,-0.55
2022-12-10T08:39:08.592Z,-0.40
2022-12-10T08:41:35.152Z,-0.36
2022-12-10T08:44:01.744Z,-0.50
2022-12-10T08:46:29.565Z,-0.66
2022-12-10T08:48:56.240Z,-0.60
2022-12-10T08:51:23.074Z,-0.45
2022-12-10T08:53:49.755Z,-0.36
2022-12-10T08:56:16.394Z,-0.49
2022-12-10T08:58:43.295Z,-0.52
2022-12-10T09:01:16.225Z,-0.47
2022-12-10T09:03:43.297Z,-0.50
2022-12-10T09:06:14.485Z,-0.46
2022-12-10T09:08:41.529Z,-0.30
2022-12-10T09:11:12.418Z,-0.26
2022-12-10T09:13:39.041Z,-0.08
2022-12-10T09:16:06.712Z,-0.07
2022-12-10T09:18:33.672Z,-0.03
2022-12-10T09:21:00.203Z,-0.07
2022-12-10T09:23:27.254Z,-0.18
2022-12-10T09:25:54.143Z,-0.38
2022-12-10T09:28:20.845Z,-0.23
2022-12-10T09:30:56.682Z,-0.15
2022-12-10T09:33:23.547Z,-0.16
2022-12-10T09:35:50.153Z,-0.24
2022-12-10T09:38:16.821Z,-0.15
2022-12-10T09:41:03.091Z,-0.24
2022-12-10T09:43:59.018Z,-0.37
2022-12-10T09:46:53.172Z,-0.57
2022-12-10T09:49:34.730Z,-0.90
2022-12-10T09:52:05.219Z,-1.18
2022-12-10T09:54:37.476Z,-1.26
2022-12-10T09:57:07.065Z,-1.11
2022-12-10T09:59:41.475Z,-1.00
2022-12-10T10:02:29.928Z,-0.87
2022-12-10T10:05:27.499Z,-0.90
2022-12-10T10:08:27.319Z,-0.81
2022-12-10T10:10:54.200Z,-0.76
2022-12-10T10:13:42.449Z,-0.88
2022-12-10T10:16:24.424Z,-0.81
2022-12-10T10:19:07.129Z,-1.02
2022-12-10T10:21:37.993Z,-1.01
2022-12-10T10:24:11.618Z,-0.82
2022-12-10T10:26:38.768Z,-0.65
2022-12-10T10:29:12.045Z,-0.55
2022-12-10T10:31:41.942Z,-0.41
2022-12-10T10:34:25.747Z,-0.39
2022-12-10T10:36:58.827Z,-0.28
2022-12-10T10:39:31.548Z,-0.40
2022-12-10T10:42:00.548Z,-0.49
2022-12-10T10:44:34.851Z,-0.53
2022-12-10T10:47:01.582Z,-0.26
2022-12-10T10:49:30.426Z,-0.24
2022-12-10T10:52:05.189Z,-0.37
2022-12-10T10:54:50.440Z,-0.40
2022-12-10T10:57:37.894Z,-0.43
2022-12-10T11:00:18.369Z,-0.26
2022-12-10T11:02:45.426Z,-0.30
2022-12-10T11:05:32.248Z,-0.29
2022-12-10T11:08:05.638Z,-0.23
2022-12-10T11:10:32.690Z,0.02
2022-12-10T11:13:09.060Z,0.23
2022-12-10T11:15:43.233Z,0.08
2022-12-10T11:18:32.254Z,0.16
2022-12-10T11:20:58.801Z,0.19
2022-12-10T11:23:33.237Z,0.24
2022-12-10T11:26:05.552Z,0.24
2022-12-10T11:28:40.409Z,0.05
2022-12-10T11:31:27.212Z,-0.04
2022-12-10T11:34:03.866Z,-0.17
2022-12-10T11:36:42.427Z,-0.17
2022-12-10T11:39:24.816Z,0.03
2022-12-10T11:42:12.932Z,0.06
2022-12-10T11:45:08.884Z,-0.01
2022-12-10T11:47:45.345Z,0.05
2022-12-10T11:50:26.532Z,-0.05
2022-12-10T11:53:27.736Z,-0.19
2022-12-10T11:56:04.468Z,-0.23
2022-12-10T11:58:43.087Z,-0.08
2022-12-10T12:01:30.036Z,0.01
2022-12-10T12:04:21.467Z,-0.19
2022-12-10T12:06:59.354Z,-0.10
2022-12-10T12:10:01.432Z,-0.23
2022-12-10T12:12:55.832Z,-0.17
2022-12-10T12:16:08.476Z,-0.12
2022-12-10T12:18:46.637Z,-0.18
2022-12-10T12:21:16.333Z,-0.34
2022-12-10T12:24:08.269Z,-0.35
2022-12-10T12:26:41.130Z,-0.09
2022-12-10T12:29:18.586Z,0.00
2022-12-10T12:31:50.335Z,-0.24
2022-12-10T12:34:30.088Z,-0.34
2022-12-10T12:36:56.755Z,-0.34
2022-12-10T12:39:52.343Z,-0.47
2022-12-10T12:42:35.025Z,-0.56
2022-12-10T12:45:14.303Z,-0.44
2022-12-10T12:48:01.904Z,-0.36
2022-12-10T12:50:53.519Z,-0.44
2022-12-10T12:53:23.765Z,-0.47
2022-12-10T12:56:09.263Z,-0.46
2022-12-10T12:58:35.832Z,-0.58
2022-12-10T13:01:19.371Z,-0.67
2022-12-10T13:03:47.156Z,-0.71
2022-12-10T13:06:23.774Z,-0.60
2022-12-10T13:09:24.731Z,-0.63
2022-12-10T13:12:03.514Z,-0.65
2022-12-10T13:14:35.112Z,-0.76
2022-12-10T13:17:29.777Z,-0.65
2022-12-10T13:20:29.339Z,-0.50
2022-12-10T13:23:01.576Z,-0.56
2022-12-10T13:25:56.699Z,-0.71
2022-12-10T13:28:30.829Z,-0.66
2022-12-10T13:31:18.948Z,-0.69
2022-12-10T13:33:48.282Z,-0.67
2022-12-10T13:36:26.295Z,-0.55
2022-12-10T13:39:23.199Z,-0.77
2022-12-10T13:42:28.626Z,-0.68
2022-12-10T13:45:26.489Z,-0.71
2022-12-10T13:47:55.753Z,-0.76
2022-12-10T13:50:31.175Z,-0.85
2022-12-10T13:53:50.254Z,-0.83
2022-12-10T13:56:30.329Z,-0.80
2022-12-10T13:59:15.874Z,-0.73
2022-12-10T14:02:21.396Z,-0.61
2022-12-10T14:05:00.042Z,-0.76
2022-12-10T14:07:28.191Z,-0.78
2022-12-10T14:09:57.982Z,-0.76
2022-12-10T14:12:34.820Z,-0.90
2022-12-10T14:15:05.930Z,-0.99
2022-12-10T14:17:38.165Z,-0.99
2022-12-10T14:20:08.420Z,-1.10
2022-12-10T14:23:23.086Z,-1.23
2022-12-10T14:25:49.734Z,-1.19
2022-12-10T14:28:18.750Z,-1.22
2022-12-10T14:30:48.183Z,-1.19
2022-12-10T14:33:18.532Z,-1.19
2022-12-10T14:35:49.065Z,-1.39
2022-12-10T14:38:28.377Z,-1.31
2022-12-10T14:40:56.043Z,-1.45
2022-12-10T14:43:26.877Z,-1.47
2022-12-10T14:45:57.452Z,-1.40
2022-12-10T14:48:24.969Z,-1.50
2022-12-10T14:50:52.398Z,-1.57
2022-12-10T14:53:29.245Z,-1.62
2022-12-10T14:56:05.864Z,-1.59
2022-12-10T14:58:42.223Z,-1.62
2022-12-10T15:01:20.605Z,-1.65
2022-12-10T15:03:49.297Z,-1.75
2022-12-10T15:06:19.816Z,-1.77
2022-12-10T15:08:48.489Z,-1.71
2022-12-10T15:11:20.048Z,-1.80
2022-12-10T15:13:54.623Z,-1.86
2022-12-10T15:16:30.811Z,-1.94
2022-12-10T15:19:30.355Z,-2.05
2022-12-10T15:22:02.559Z,-2.11
2022-12-10T15:24:37.995Z,-2.04
2022-12-10T15:27:19.904Z,-2.08
2022-12-10T15:29:47.090Z,-2.04
2022-12-10T15:32:18.405Z,-2.14
2022-12-10T15:34:53.497Z,-2.10
2022-12-10T15:37:27.704Z,-2.08
2022-12-10T15:40:03.030Z,-2.06
2022-12-10T15:42:39.822Z,-2.08
2022-12-10T15:45:20.013Z,-2.14
2022-12-10T15:47:46.665Z,-2.15
2022-12-10T15:50:13.728Z,-2.22
2022-12-10T15:52:40.991Z,-2.23
2022-12-10T15:55:08.564Z,-2.05
2022-12-10T15:57:37.403Z,-2.03
2022-12-10T16:00:20.987Z,-2.15
2022-12-10T16:02:58.611Z,-2.14
2022-12-10T16:05:36.106Z,-1.97
2022-12-10T16:08:13.324Z,-2.03
2022-12-10T16:10:40.014Z,-2.19
2022-12-10T16:13:12.224Z,-2.04
2022-12-10T16:15:55.662Z,-2.13
2022-12-10T16:18:22.246Z,-2.09
2022-12-10T16:20:49.106Z,-2.17
2022-12-10T16:23:16.001Z,-2.23
2022-12-10T16:25:45.321Z,-2.16
2022-12-10T16:28:14.287Z,-2.13
2022-12-10T16:30:47.611Z,-2.14
2022-12-10T16:33:14.628Z,-2.16
2022-12-10T16:35:41.416Z,-2.31
2022-12-10T16:38:10.713Z,-2.23
2022-12-10T16:40:39.709Z,-2.22
2022-12-10T16:43:07.187Z,-2.20
2022-12-10T16:45:39.311Z,-2.16
2022-12-10T16:48:06.405Z,-2.23
2022-12-10T16:50:34.356Z,-2.15
2022-12-10T16:53:07.691Z,-2.17
2022-12-10T16:55:34.774Z,-2.18
2022-12-10T16:58:02.028Z,-2.12
2022-12-10T17:00:29.192Z,-2.35
2022-12-10T17:02:55.846Z,-2.41
2022-12-10T17:05:53.275Z,-2.43
2022-12-10T17:08:21.088Z,-2.42
2022-12-10T17:11:07.881Z,-2.46
2022-12-10T17:13:35.557Z,-2.43
2022-12-10T17:16:03.321Z,-2.47
2022-12-10T17:18:34.922Z,-2.41
2022-12-10T17:21:01.614Z,-2.30
2022-12-10T17:23:28.251Z,-2.31
2022-12-10T17:25:55.319Z,-2.40
2022-12-10T17:28:23.337Z,-2.35
2022-12-10T17:30:50.757Z,-2.35
2022-12-10T17:33:20.694Z,-2.43
2022-12-10T17:35:48.974Z,-2.44
2022-12-10T17:38:26.121Z,-2.50
2022-12-10T17:40:53.815Z,-2.54
2022-12-10T17:43:20.476Z,-2.52
2022-12-10T17:45:47.209Z,-2.46
2022-12-10T17:48:15.438Z,-2.54
2022-12-10T17:50:45.027Z,-2.58
2022-12-10T17:53:15.487Z,-2.54
2022-12-10T17:55:48.392Z,-2.67
2022-12-10T17:58:16.085Z,-2.72
2022-12-10T18:00:44.730Z,-2.64
2022-12-10T18:03:11.614Z,-2.72
2022-12-10T18:05:39.077Z,-2.80
2022-12-10T18:08:06.235Z,-2.75
2022-12-10T18:10:34.493Z,-2.85
2022-12-10T18:13:01.819Z,-2.87
2022-12-10T18:15:30.157Z,-2.81
2022-12-10T18:17:57.691Z,-2.85
2022-12-10T18:20:26.134Z,-2.92
2022-12-10T18:22:53.788Z,-2.93
2022-12-10T18:25:22.928Z,-2.98
2022-12-10T18:27:50.976Z,-2.92
2022-12-10T18:30:20.680Z,-2.90
2022-12-10T18:32:47.791Z,-2.94
2022-12-10T18:35:14.768Z,-2.87
2022-12-10T18:37:41.600Z,-2.90
2022-12-10T18:40:14.436Z,-2.84
2022-12-10T18:42:46.741Z,-2.82
2022-12-10T18:45:14.264Z,-2.85
2022-12-10T18:47:40.962Z,-2.85
2022-12-10T18:50:20.536Z,-2.85
2022-12-10T18:52:47.504Z,-2.78
2022-12-10T18:55:14.169Z,-2.75
2022-12-10T18:57:45.570Z,-2.73
2022-12-10T19:00:19.462Z,-2.65
2022-12-10T19:02:46.896Z,-2.70
2022-12-10T19:05:14.366Z,-2.68
2022-12-10T19:07:40.996Z,-2.64
2022-12-10T19:10:14.877Z,-2.71
2022-12-10T19:12:41.495Z,-2.80
2022-12-10T19:15:08.974Z,-2.71
2022-12-10T19:17:37.004Z,-2.71
2022-12-10T19:20:04.742Z,-2.52
2022-12-10T19:22:31.351Z,-2.57
2022-12-10T19:24:57.876Z,-2.44
2022-12-10T19:27:25.113Z,-2.57
2022-12-10T19:29:51.749Z,-2.54
2022-12-10T19:32:18.323Z,-2.59
2022-12-10T19:34:45.069Z,-2.73
2022-12-10T19:37:11.827Z,-2.71
2022-12-10T19:39:38.388Z,-2.76
2022-12-10T19:42:05.049Z,-2.66
2022-12-10T19:44:32.226Z,-2.61
2022-12-10T19:46:59.333Z,-2.70
2022-12-10T19:49:26.023Z,-2.81
2022-12-10T19:51:52.602Z,-2.75
2022-12-10T19:54:19.276Z,-2.80
2022-12-10T19:56:46.074Z,-2.81
2022-12-10T19:59:17.996Z,-2.80
2022-12-10T20:01:45.528Z,-2.82
2022-12-10T20:04:14.649Z,-2.83
2022-12-10T20:06:43.545Z,-2.85
2022-12-10T20:09:24.964Z,-2.81
2022-12-10T20:11:51.680Z,-2.82
2022-12-10T20:14:18.846Z,-2.78
2022-12-10T20:16:46.656Z,-2.81
2022-12-10T20:19:15.839Z,-2.84
2022-12-10T20:21:42.434Z,-2.81
2022-12-10T20:24:09.498Z,-2.76
2022-12-10T20:26:39.052Z,-2.78
2022-12-10T20:29:21.014Z,-2.82
2022-12-10T20:31:49.543Z,-2.86
2022-12-10T20:34:17.030Z,-2.83
2022-12-10T20:36:44.645Z,-2.83
2022-12-10T20:39:23.332Z,-2.79
2022-12-10T20:41:51.410Z,-2.85
2022-12-10T20:44:18.665Z,-2.85
2022-12-10T20:46:46.246Z,-2.97
2022-12-10T20:49:15.181Z,-2.93
2022-12-10T20:51:42.138Z,-2.91
2022-12-10T20:54:10.432Z,-2.94
2022-12-10T20:56:37.377Z,-2.90
2022-12-10T20:59:05.499Z,-2.94
2022-12-10T21:01:32.189Z,-2.94
2022-12-10T21:03:59.659Z,-2.96
2022-12-10T21:06:28.860Z,-2.95
2022-12-10T21:08:56.029Z,-2.93
2022-12-10T21:11:22.715Z,-2.81
2022-12-10T21:13:49.315Z,-2.78
2022-12-10T21:16:19.990Z,-2.88
2022-12-10T21:18:49.091Z,-2.87
2022-12-10T21:21:15.735Z,-2.89
2022-12-10T21:23:43.513Z,-2.94
2022-12-10T21:26:10.979Z,-2.96
2022-12-10T21:28:37.573Z,-2.94
2022-12-10T21:31:04.338Z,-2.94
2022-12-10T21:33:33.426Z,-2.94
2022-12-10T21:36:02.552Z,-2.95
2022-12-10T21:38:29.192Z,-2.92
2022-12-10T21:40:55.812Z,-2.83
2022-12-10T21:43:28.929Z,-2.90
2022-12-10T21:45:56.693Z,-2.93
2022-12-10T21:48:25.907Z,-3.03
2022-12-10T21:51:02.803Z,-3.06
2022-12-10T21:53:29.911Z,-3.09
2022-12-10T21:55:56.534Z,-3.01
2022-12-10T21:58:23.395Z,-3.00
2022-12-10T22:00:57.599Z,-3.02
2022-12-10T22:03:24.436Z,-3.04
2022-12-10T22:05:51.110Z,-3.03
2022-12-10T22:08:17.709Z,-2.97
2022-12-10T22:10:49.946Z,-3.00
2022-12-10T22:13:18.677Z,-2.97
2022-12-10T22:15:47.202Z,-2.97
2022-12-10T22:18:14.921Z,-3.00
2022-12-10T22:20:41.839Z,-3.04
2022-12-10T22:23:12.166Z,-3.02
2022-12-10T22:25:43.538Z,-2.98
2022-12-10T22:28:10.569Z,-2.97
2022-12-10T22:30:40.632Z,-2.94
2022-12-10T22:33:08.368Z,-2.97
2022-12-10T22:35:35.273Z,-2.95
2022-12-10T22:38:01.938Z,-2.96
2022-12-10T22:40:28.514Z,-2.96
2022-12-10T22:43:06.599Z,-2.99
2022-12-10T22:45:43.578Z,-2.94
2022-12-10T22:48:10.704Z,-3.00
2022-12-10T22:50:37.909Z,-2.99
2022-12-10T22:53:05.597Z,-2.97
2022-12-10T22:55:32.227Z,-2.97
2022-12-10T22:57:58.839Z,-3.08
2022-12-10T23:00:25.546Z,-3.15
2022-12-10T23:02:52.169Z,-3.07
2022-12-10T23:05:18.918Z,-3.11
2022-12-10T23:07:45.890Z,-3.11
2022-12-10T23:10:13.067Z,-3.22
2022-12-10T23:12:58.524Z,-3.20
2022-12-10T23:15:25.271Z,-3.18
2022-12-10T23:17:52.475Z,-3.21
2022-12-10T23:20:19.206Z,-3.29
2022-12-10T23:22:45.767Z,-3.31
2022-12-10T23:25:12.632Z,-3.32
2022-12-10T23:27:39.515Z,-3.30
2022-12-10T23:30:08.197Z,-3.30
2022-12-10T23:32:34.878Z,-3.34
2022-12-10T23:35:01.583Z,-3.31
2022-12-10T23:37:31.457Z,-3.31
2022-12-10T23:39:59.696Z,-3.38
2022-12-10T23:42:27.828Z,-3.36
2022-12-10T23:44:54.597Z,-3.37
2022-12-10T23:47:21.182Z,-3.35
2022-12-10T23:49:47.742Z,-3.37
2022-12-10T23:52:14.280Z,-3.37
2022-12-10T23:54:40.928Z,-3.37
2022-12-10T23:57:07.687Z,-3.40
2022-12-10T23:59:34.300Z,-3.37
